Terminal Aerodrome Forecast
Issued by NWS

Home | Current Version | Previous Version | Text Only | Print | Product List | Glossary On
Versions: 1 2 3 4 5 6 7 8 9 10 11 12 13 14 15
000
FTUS45 KABQ 190400 AAA
TAFAEG
TAF AMD
KAEG 190417Z 1904/1924 23011KT P6SM VCSH BKN130
      TEMPO 1904/1906 25019G28KT
     FM190600 VRB04KT P6SM BKN110
     FM191800 29009KT P6SM FEW050 BKN100=

USA.gov is the U.S. government's official web portal to all federal, state and local government web resources and services.